VABP/BHO METAR and TAF weather

Enter ICAO airport designator
Station Type Date Time Source
VABP METAR 2018/12/15 02:00 UTC NOAA

VABP 150200Z 05003KT 2000 BR NSC 11/09 Q1023 NOSIG


Station Type Date Time Source
VABP Decoded METAR 2018/12/15 02:00 UTC NOAA

Bhopal / Bairagarh, India (VABP) 23-17N 077-21E 523M
Dec 14, 2018 - 09:00 PM EST / 2018.12.15 0200 UTC
Wind: from the NE (050 degrees) at 3 MPH (3 KT):0
Visibility: 1 mile(s):0
Weather: mist
Temperature: 51 F (11 C)
Dew Point: 48 F (9 C)
Relative Humidity: 87%
Pressure (altimeter): 30.21 in. Hg (1023 hPa)
ob: VABP 150200Z 05003KT 2000 BR NSC 11/09 Q1023 NOSIG
cycle: 2

Station Type Date Time Source
VABP TAF 2018/02/11 00:00 UTC NOAA

TAF VABP 102300Z 1100/1109 12003KT 2000 HZ FEW100
BECMG 1104/1106 14008KT 5000 RA HZ SCT020 SCT025 BKN100


Example: see airport list